Norwoodville, Iowa
Current Conditions -  °F | °C
As of 12:50 PM on Friday 24 Oct 2014 (Local Time) from KIKV Reporting Station
Haze Haze  
Wind Chill: 63°   Ceiling: 800
Heat Index: 63°   Visibility: 6mi
Dew Point: 61°   Wind: 8mph
Humidity: 94%   Direction: 190°S
Pressure: 29.93"   Gusts: 14mph
Location:  41.6142°N, 93.5543°W
Report Text: KIKV 241750Z AUTO 19007G12KT 6SM BR OVC008 17/16 A2993 RMK AO2
Loading
Personal Weather Stations






























Interactive Weather Map
Tropical Storm Tracking
New forecast layout! Learn more

10-Day Weather Forecast

Advertisements
Track Severe Weather on mobile